Time;durP1;ratioP1;P1;durP2;ratioP2;P2;SDS_P1;SDS_P2;PMS_P1;PMS_P2;Temp;Humidity;BMP_temperature;BMP_pressure;BME280_temperature;BME280_humidity;BME280_pressure;Samples;Min_cycle;Max_cycle;Signal;HPM_P1;HPM_P2
2021/12/10 00:01:09;;;;;;;42.83;17.25;;;;;;;;;;4939676;28;20098;-80
2021/12/10 00:10:19;;;;;;;42.67;16.52;;;;;;;;;;4946716;28;20035;-82
2021/12/10 00:13:43;;;;;;;;;;;;;;;;;;;;;
2021/12/10 00:16:12;;;;;;;36.75;15.38;;;;;;;;;;5034670;28;20026;-81
2021/12/10 00:19:08;;;;;;;41.80;17.75;;;;;;;;;;5016609;28;20044;-82
2021/12/10 00:22:48;;;;;;;40.42;16.50;;;;;;;;;;5021716;28;20021;-81
2021/12/10 00:25:24;;;;;;;35.38;15.48;;;;;;;;;;5027301;28;20116;-81
2021/12/10 00:28:02;;;;;;;43.33;17.10;;;;;;;;;;5021661;28;20025;-84
2021/12/10 00:31:03;;;;;;;35.95;15.38;;;;;;;;;;5038484;28;20068;-83
2021/12/10 00:33:38;;;;;;;38.03;15.48;;;;;;;;;;5019551;28;20037;-82
2021/12/10 00:36:16;;;;;;;45.03;17.10;;;;;;;;;;5020088;28;20059;-83
2021/12/10 00:39:25;;;;;;;37.45;16.02;;;;;;;;;;5019810;28;20044;-82
2021/12/10 00:42:34;;;;;;;41.72;16.08;;;;;;;;;;5020148;28;20026;-81
2021/12/10 00:44:53;;;;;;;35.78;15.57;;;;;;;;;;5036824;28;20084;-83
2021/12/10 00:47:19;;;;;;;35.33;15.10;;;;;;;;;;5019688;28;20065;-83
2021/12/10 00:49:47;;;;;;;39.10;15.48;;;;;;;;;;5036749;28;20048;-82
2021/12/10 00:52:14;;;;;;;32.67;14.88;;;;;;;;;;5019022;28;20389;-81
2021/12/10 00:54:43;;;;;;;38.03;14.82;;;;;;;;;;5018669;28;20105;-82
2021/12/10 00:57:18;;;;;;;37.65;15.35;;;;;;;;;;5019255;28;20479;-83
2021/12/10 00:59:46;;;;;;;35.55;16.63;;;;;;;;;;5037525;28;20029;-81
2021/12/10 01:02:16;;;;;;;32.42;14.68;;;;;;;;;;5018650;28;20079;-83
2021/12/10 01:04:47;;;;;;;30.75;14.05;;;;;;;;;;5019389;28;20094;-83
2021/12/10 01:07:20;;;;;;;31.08;14.23;;;;;;;;;;5018971;28;20021;-83
2021/12/10 01:10:19;;;;;;;28.55;13.18;;;;;;;;;;5038140;28;20490;-82
2021/12/10 01:13:05;;;;;;;;;;;;;;;;;;;;;
2021/12/10 01:30:31;;;;;;;30.75;12.43;;;;;;;;;;5037665;28;20508;-80
2021/12/10 01:34:00;;;;;;;;;;;;;;;;;;;;;
2021/12/10 01:54:35;;;;;;;22.00;11.45;;;;;;;;;;1344725;26;20562;-79
2021/12/10 01:57:22;;;;;;;26.95;12.25;;;;;;;;;;4994548;28;20048;-79
2021/12/10 01:59:59;;;;;;;24.13;11.82;;;;;;;;;;5015803;28;20460;-78
2021/12/10 02:02:35;;;;;;;24.55;12.23;;;;;;;;;;4997782;28;20130;-79
2021/12/10 02:05:16;;;;;;;24.77;11.90;;;;;;;;;;4997763;28;20061;-78
2021/12/10 02:07:53;;;;;;;26.33;12.23;;;;;;;;;;4998820;28;20018;-78
2021/12/10 02:10:21;;;;;;;23.70;11.57;;;;;;;;;;5015881;28;20161;-80
2021/12/10 02:12:49;;;;;;;24.20;11.93;;;;;;;;;;5015451;28;20046;-79
2021/12/10 02:15:15;;;;;;;26.42;12.75;;;;;;;;;;5015921;28;20545;-78
2021/12/10 02:17:52;;;;;;;26.08;12.85;;;;;;;;;;4998621;28;20046;-80
2021/12/10 02:20:28;;;;;;;24.77;11.52;;;;;;;;;;5016542;28;20076;-80
2021/12/10 02:23:04;;;;;;;26.65;12.10;;;;;;;;;;5016251;28;20049;-79
2021/12/10 02:25:37;;;;;;;24.60;12.20;;;;;;;;;;5016293;28;20040;-79
2021/12/10 02:28:12;;;;;;;25.02;11.70;;;;;;;;;;4998507;28;20120;-80
2021/12/10 02:30:39;;;;;;;26.67;11.50;;;;;;;;;;5015774;28;20398;-80
2021/12/10 02:33:19;;;;;;;;;;;;;;;;;;;;;
2021/12/10 02:36:13;;;;;;;22.83;11.30;;;;;;;;;;5022307;28;20113;-79
2021/12/10 02:38:57;;;;;;;23.83;10.90;;;;;;;;;;5020008;28;20078;-81
2021/12/10 02:41:31;;;;;;;26.92;11.70;;;;;;;;;;5016632;28;20150;-81
2021/12/10 02:44:03;;;;;;;25.10;11.60;;;;;;;;;;4998437;28;20018;-80
2021/12/10 02:46:32;;;;;;;23.00;11.48;;;;;;;;;;4998446;28;20052;-81
2021/12/10 02:49:03;;;;;;;22.80;11.32;;;;;;;;;;4998907;28;20025;-80
2021/12/10 02:51:35;;;;;;;27.08;11.68;;;;;;;;;;5015843;28;20026;-80
2021/12/10 02:54:08;;;;;;;23.88;11.35;;;;;;;;;;5016962;28;20041;-82
2021/12/10 02:56:34;;;;;;;24.27;11.60;;;;;;;;;;5016452;28;20026;-82
2021/12/10 02:59:01;;;;;;;25.92;12.05;;;;;;;;;;5000178;28;20117;-81
2021/12/10 03:01:44;;;;;;;22.70;11.43;;;;;;;;;;5017117;28;20471;-82
2021/12/10 03:04:18;;;;;;;23.67;11.20;;;;;;;;;;5016314;28;20041;-81
2021/12/10 03:06:51;;;;;;;23.02;11.55;;;;;;;;;;4999161;28;20117;-81
2021/12/10 03:09:24;;;;;;;23.13;10.82;;;;;;;;;;5000282;28;20071;-80
2021/12/10 03:11:52;;;;;;;21.77;10.45;;;;;;;;;;4999707;28;20075;-80
2021/12/10 03:14:24;;;;;;;23.80;11.30;;;;;;;;;;4998980;28;20061;-81
2021/12/10 03:16:52;;;;;;;22.10;11.30;;;;;;;;;;4996522;28;20097;-81
2021/12/10 03:19:18;;;;;;;21.85;10.48;;;;;;;;;;4994256;28;20096;-80
2021/12/10 03:21:45;;;;;;;22.63;11.07;;;;;;;;;;5013815;28;20026;-80
2021/12/10 03:24:13;;;;;;;24.05;10.80;;;;;;;;;;5016051;28;20026;-81
2021/12/10 03:26:39;;;;;;;20.10;10.85;;;;;;;;;;4997530;28;20080;-79
2021/12/10 03:29:05;;;;;;;21.77;11.02;;;;;;;;;;5015088;28;20041;-81
2021/12/10 03:31:30;;;;;;;23.15;11.02;;;;;;;;;;4997858;28;20026;-81
2021/12/10 03:33:57;;;;;;;21.98;10.80;;;;;;;;;;4997749;28;20026;-81
2021/12/10 03:36:24;;;;;;;24.27;11.52;;;;;;;;;;4997508;28;20030;-81
2021/12/10 03:38:50;;;;;;;24.90;11.20;;;;;;;;;;5015337;28;20061;-80
2021/12/10 03:41:25;;;;;;;21.75;10.85;;;;;;;;;;4997186;28;20418;-81
2021/12/10 03:43:57;;;;;;;23.55;10.93;;;;;;;;;;4998454;28;20076;-80
2021/12/10 03:46:23;;;;;;;22.48;11.13;;;;;;;;;;4998193;28;20475;-80
2021/12/10 03:48:48;;;;;;;22.67;10.85;;;;;;;;;;5015435;28;20479;-81
2021/12/10 03:51:21;;;;;;;20.92;9.82;;;;;;;;;;4996968;28;20022;-81
2021/12/10 03:53:48;;;;;;;23.77;10.80;;;;;;;;;;5015325;28;20041;-81
2021/12/10 03:56:19;;;;;;;20.95;10.35;;;;;;;;;;5000233;28;20096;-82
2021/12/10 03:58:45;;;;;;;21.73;10.50;;;;;;;;;;5000746;28;20168;-81
2021/12/10 04:01:12;;;;;;;20.55;10.73;;;;;;;;;;5001306;28;20025;-80
2021/12/10 04:03:39;;;;;;;21.98;10.38;;;;;;;;;;5000981;28;20025;-80
2021/12/10 04:06:05;;;;;;;18.73;9.95;;;;;;;;;;5000871;28;20044;-80
2021/12/10 04:08:34;;;;;;;20.85;9.68;;;;;;;;;;5001329;28;20026;-79
2021/12/10 04:11:06;;;;;;;18.63;9.68;;;;;;;;;;5018573;28;20052;-77
2021/12/10 04:13:35;;;;;;;20.02;10.02;;;;;;;;;;5018486;28;20025;-79
2021/12/10 04:16:02;;;;;;;19.40;9.30;;;;;;;;;;5000099;28;20048;-78
2021/12/10 04:18:31;;;;;;;17.45;9.38;;;;;;;;;;5000722;28;20026;-81
2021/12/10 04:21:07;;;;;;;17.80;9.43;;;;;;;;;;5001757;28;20483;-79
2021/12/10 04:23:34;;;;;;;17.65;8.52;;;;;;;;;;5017919;28;20104;-79
2021/12/10 04:26:05;;;;;;;16.85;9.07;;;;;;;;;;5000249;28;20037;-79
2021/12/10 04:28:32;;;;;;;19.85;9.10;;;;;;;;;;5018219;28;20029;-79
2021/12/10 04:31:01;;;;;;;15.77;8.50;;;;;;;;;;5001389;28;20384;-79
2021/12/10 04:33:29;;;;;;;17.77;9.10;;;;;;;;;;4999664;28;20030;-80
2021/12/10 04:35:57;;;;;;;20.30;10.02;;;;;;;;;;5000583;28;20029;-80
2021/12/10 04:38:29;;;;;;;17.50;9.07;;;;;;;;;;5001688;28;20028;-78
2021/12/10 04:41:00;;;;;;;19.30;8.63;;;;;;;;;;5018649;28;20037;-79
2021/12/10 04:43:35;;;;;;;16.90;9.43;;;;;;;;;;5000947;28;20031;-78
2021/12/10 04:46:00;;;;;;;17.88;8.90;;;;;;;;;;5000673;28;20022;-79
2021/12/10 04:48:29;;;;;;;17.92;9.23;;;;;;;;;;5018011;28;20192;-81
2021/12/10 04:51:00;;;;;;;17.95;9.02;;;;;;;;;;5018297;28;20036;-81
2021/12/10 04:53:26;;;;;;;18.42;9.25;;;;;;;;;;5000822;28;20037;-81
2021/12/10 04:55:59;;;;;;;21.48;8.93;;;;;;;;;;5000944;28;20383;-81
2021/12/10 04:58:35;;;;;;;18.45;8.85;;;;;;;;;;4999807;28;20092;-81
2021/12/10 05:01:09;;;;;;;19.42;9.52;;;;;;;;;;5000266;28;20029;-79
2021/12/10 05:03:40;;;;;;;17.33;9.02;;;;;;;;;;5017310;28;20030;-80
2021/12/10 05:06:29;;;;;;;20.63;9.73;;;;;;;;;;4998681;28;20041;-79
2021/12/10 05:09:12;;;;;;;18.42;8.80;;;;;;;;;;4999639;28;20036;-81
2021/12/10 05:11:53;;;;;;;18.60;8.20;;;;;;;;;;4999131;28;20030;-81
2021/12/10 05:18:31;;;;;;;18.70;8.93;;;;;;;;;;5005996;28;20029;-82
2021/12/10 05:27:13;;;;;;;;;;;;;;;;;;;;;
2021/12/10 05:30:00;;;;;;;;;;;;;;;;;;;;;
2021/12/10 05:33:05;;;;;;;17.90;8.60;;;;;;;;;;5035315;28;20029;-81
2021/12/10 05:35:34;;;;;;;16.98;8.93;;;;;;;;;;5035756;28;20095;-81
2021/12/10 05:38:02;;;;;;;20.92;8.82;;;;;;;;;;5037655;28;20036;-80
2021/12/10 05:40:30;;;;;;;15.93;8.00;;;;;;;;;;5015902;28;20109;-80
2021/12/10 05:42:58;;;;;;;18.90;9.00;;;;;;;;;;5036752;28;20027;-81
2021/12/10 05:45:36;;;;;;;22.98;10.57;;;;;;;;;;5014784;28;20108;-79
2021/12/10 05:48:06;;;;;;;20.05;10.10;;;;;;;;;;5017785;28;20033;-79
2021/12/10 05:50:46;;;;;;;20.65;10.10;;;;;;;;;;5035729;28;20026;-83
2021/12/10 05:53:43;;;;;;;22.85;10.68;;;;;;;;;;5037199;28;20067;-82
2021/12/10 05:56:31;;;;;;;;;;;;;;;;;;;;;
2021/12/10 05:59:24;;;;;;;18.98;9.57;;;;;;;;;;5029551;28;20035;-81
2021/12/10 06:02:11;;;;;;;;;;;;;;;;;;;;;
2021/12/10 06:11:29;;;;;;;;;;;;;;;;;;5029843;28;20029;-81
2021/12/10 06:17:56;;;;;;;;;;;;;;;;;;;;;
2021/12/10 06:20:50;;;;;;;13.07;7.47;;;;;;;;;;5035263;28;20021;-80
2021/12/10 06:24:01;;;;;;;16.00;7.57;;;;;;;;;;5009065;28;20463;-80
2021/12/10 06:30:59;;;;;;;17.50;7.97;;;;;;;;;;5029109;28;20040;-82
2021/12/10 06:44:36;;;;;;;;;;;;;;;;;;;;;
2021/12/10 06:48:01;;;;;;;19.05;9.35;;;;;;;;;;4869360;29;20105;-79
2021/12/10 06:55:18;;;;;;;;;;;;;;;;;;;;;
2021/12/10 06:58:38;;;;;;;;;;;;;;;;;;;;;
2021/12/10 07:04:23;;;;;;;14.43;7.20;;;;;;;;;;4966406;28;20117;-82
2021/12/10 07:07:00;;;;;;;15.43;7.45;;;;;;;;;;4958724;28;20418;-80
2021/12/10 07:12:39;;;;;;;15.35;7.85;;;;;;;;;;5031170;28;20125;-82
2021/12/10 07:15:52;;;;;;;;;;;;;;;;;;;;;
2021/12/10 07:18:30;;;;;;;16.75;7.85;;;;;;;;;;5024357;28;20041;-81
2021/12/10 07:24:03;;;;;;;;;;;;;;;;;;;;;
2021/12/10 07:26:55;;;;;;;16.02;8.18;;;;;;;;;;5030959;28;20120;-83
2021/12/10 07:29:49;;;;;;;17.02;8.60;;;;;;;;;;5014919;28;20073;-83
2021/12/10 07:32:26;;;;;;;;;;;;;;;;;;;;;
2021/12/10 07:35:54;;;;;;;;;;;;;;;;;;;;;
2021/12/10 07:38:35;;;;;;;;;;;;;;;;;;;;;
2021/12/10 07:41:16;;;;;;;;;;;;;;;;;;;;;
2021/12/10 07:44:16;;;;;;;16.23;8.55;;;;;;;;;;5038994;28;20017;-83
2021/12/10 07:46:56;;;;;;;17.33;8.60;;;;;;;;;;5022335;28;20029;-83
2021/12/10 07:49:30;;;;;;;18.00;8.98;;;;;;;;;;5019060;28;20388;-83
2021/12/10 07:52:21;;;;;;;15.23;8.15;;;;;;;;;;5041395;28;20032;-82
2021/12/10 07:54:50;;;;;;;16.75;7.88;;;;;;;;;;5022420;28;20037;-83
2021/12/10 07:57:29;;;;;;;18.98;9.05;;;;;;;;;;5018034;28;20033;-84
2021/12/10 08:00:09;;;;;;;17.90;8.38;;;;;;;;;;5032336;28;20036;-82
2021/12/10 08:02:48;;;;;;;18.52;8.48;;;;;;;;;;5020659;28;20025;-83
2021/12/10 08:09:02;;;;;;;;;;;;;;;;;;;;;
2021/12/10 08:21:01;;;;;;;;;;;;;;;;;;;;;
2021/12/10 08:27:39;;;;;;;21.10;10.55;;;;;;;;;;5008971;28;20037;-83
2021/12/10 08:34:40;;;;;;;17.55;8.45;;;;;;;;;;4934266;29;20091;-81
2021/12/10 08:37:38;;;;;;;19.95;8.23;;;;;;;;;;4939527;29;20031;-82
2021/12/10 08:41:05;;;;;;;20.13;8.57;;;;;;;;;;4958601;29;20039;-81
2021/12/10 08:43:56;;;;;;;;;;;;;;;;;;;;;
2021/12/10 08:50:47;;;;;;;21.33;9.77;;;;;;;;;;5020701;28;20098;-80
2021/12/10 08:57:09;;;;;;;;;;;;;;;;;;;;;
2021/12/10 09:00:14;;;;;;;20.92;9.48;;;;;;;;;;5023104;28;20105;-82
2021/12/10 09:03:32;;;;;;;21.33;8.55;;;;;;;;;;4999878;28;20026;-81
2021/12/10 09:06:54;;;;;;;;;;;;;;;;;;;;;
2021/12/10 09:10:07;;;;;;;31.10;11.57;;;;;;;;;;4961776;28;20126;-81
2021/12/10 09:13:13;;;;;;;25.45;11.55;;;;;;;;;;4962566;28;20090;-80
2021/12/10 09:16:18;;;;;;;25.38;11.18;;;;;;;;;;4965954;28;20049;-81
2021/12/10 09:19:28;;;;;;;23.30;9.73;;;;;;;;;;4983225;28;20041;-82
2021/12/10 09:22:12;;;;;;;20.80;9.95;;;;;;;;;;5004948;28;20034;-81
2021/12/10 09:25:10;;;;;;;21.10;9.57;;;;;;;;;;5006149;28;20034;-82
2021/12/10 09:28:56;;;;;;;24.25;9.68;;;;;;;;;;5004765;28;20041;-81
2021/12/10 09:35:26;;;;;;;;;;;;;;;;;;;;;
2021/12/10 09:38:26;;;;;;;;;;;;;;;;;;;;;
2021/12/10 09:41:57;;;;;;;;;;;;;;;;;;;;;
2021/12/10 09:45:12;;;;;;;;;;;;;;;;;;;;;
2021/12/10 09:48:22;;;;;;;21.23;9.43;;;;;;;;;;5020814;28;20108;-81
2021/12/10 09:51:14;;;;;;;21.50;10.02;;;;;;;;;;5019019;28;20037;-83
2021/12/10 09:54:11;;;;;;;24.10;10.60;;;;;;;;;;4992243;28;20044;-81
2021/12/10 09:57:12;;;;;;;18.70;8.77;;;;;;;;;;4997817;28;20040;-81
2021/12/10 10:03:15;;;;;;;22.02;9.30;;;;;;;;;;4938858;29;20544;-81
2021/12/10 10:16:09;;;;;;;14.40;7.28;;;;;;;;;;5018388;28;20036;-79
2021/12/10 10:19:09;;;;;;;16.80;7.57;;;;;;;;;;5000803;28;20498;-80
2021/12/10 10:24:58;;;;;;;16.27;8.40;;;;;;;;;;4977315;28;20049;-82
2021/12/10 10:28:14;;;;;;;15.15;7.47;;;;;;;;;;5002194;28;20053;-81
2021/12/10 10:31:18;;;;;;;17.85;7.65;;;;;;;;;;4977740;28;20058;-82
2021/12/10 10:34:14;;;;;;;15.73;7.60;;;;;;;;;;4998535;28;20042;-81
2021/12/10 10:37:33;;;;;;;;;;;;;;;;;;;;;
2021/12/10 10:46:50;;;;;;;13.05;6.78;;;;;;;;;;4895958;29;20036;-81
2021/12/10 10:50:15;;;;;;;;;;;;;;;;;;;;;
2021/12/10 10:56:44;;;;;;;15.43;6.57;;;;;;;;;;4984725;28;20038;-80
2021/12/10 10:59:40;;;;;;;13.55;6.75;;;;;;;;;;5000365;28;20036;-80
2021/12/10 11:02:40;;;;;;;;;;;;;;;;;;;;;
2021/12/10 11:05:55;;;;;;;13.40;6.32;;;;;;;;;;5020081;28;20112;-79
2021/12/10 11:17:52;;;;;;;13.57;6.85;;;;;;;;;;5015698;28;20049;-83
2021/12/10 11:20:58;;;;;;;16.63;6.78;;;;;;;;;;4992577;28;20084;-81
2021/12/10 11:23:41;;;;;;;15.05;7.10;;;;;;;;;;4999497;28;20422;-80
2021/12/10 11:27:15;;;;;;;16.52;7.35;;;;;;;;;;5017153;28;20070;-82
2021/12/10 11:35:59;;;;;;;13.50;6.57;;;;;;;;;;5013052;28;20062;-81
2021/12/10 11:38:40;;;;;;;17.85;8.07;;;;;;;;;;4999418;28;20418;-81
2021/12/10 11:41:17;;;;;;;15.70;7.30;;;;;;;;;;4999350;28;20088;-81
2021/12/10 11:50:01;;;;;;;15.18;7.18;;;;;;;;;;5017558;28;20507;-80
2021/12/10 11:52:42;;;;;;;15.50;8.10;;;;;;;;;;4999829;28;20034;-81
2021/12/10 11:58:17;;;;;;;16.23;8.35;;;;;;;;;;5019043;28;20470;-80
2021/12/10 12:00:54;;;;;;;18.08;7.53;;;;;;;;;;5019057;28;20037;-80
2021/12/10 12:03:43;;;;;;;15.20;8.23;;;;;;;;;;5001040;28;20033;-82
2021/12/10 12:06:21;;;;;;;19.40;9.15;;;;;;;;;;5000322;28;20033;-81
2021/12/10 12:08:59;;;;;;;12.23;5.88;;;;;;;;;;4999012;28;20029;-82
2021/12/10 12:11:46;;;;;;;18.45;8.15;;;;;;;;;;4999968;28;20033;-82
2021/12/10 12:14:25;;;;;;;21.63;8.68;;;;;;;;;;4999870;28;20467;-80
2021/12/10 12:17:20;;;;;;;17.10;8.25;;;;;;;;;;5017722;28;20095;-81
2021/12/10 12:20:22;;;;;;;15.85;7.82;;;;;;;;;;4999956;28;20072;-80
2021/12/10 12:26:23;;;;;;;16.27;8.07;;;;;;;;;;4995525;28;20021;-80
2021/12/10 12:29:06;;;;;;;17.30;7.28;;;;;;;;;;5000865;28;20022;-80
2021/12/10 12:31:52;;;;;;;17.95;8.27;;;;;;;;;;5001534;28;20033;-80
2021/12/10 12:34:18;;;;;;;15.38;6.90;;;;;;;;;;5001821;28;20430;-81
2021/12/10 12:37:21;;;;;;;17.45;8.40;;;;;;;;;;5000372;28;20025;-80
2021/12/10 12:40:09;;;;;;;13.48;7.00;;;;;;;;;;5018853;28;20025;-82
2021/12/10 12:42:59;;;;;;;17.10;7.85;;;;;;;;;;5018147;28;20092;-81
2021/12/10 12:48:59;;;;;;;17.02;7.25;;;;;;;;;;5015541;28;20034;-81
2021/12/10 12:51:35;;;;;;;15.50;7.60;;;;;;;;;;5000663;28;20031;-81
2021/12/10 12:54:15;;;;;;;15.05;7.97;;;;;;;;;;4997725;28;20050;-79
2021/12/10 12:57:17;;;;;;;15.27;7.32;;;;;;;;;;5017285;28;20029;-81
2021/12/10 13:02:42;;;;;;;13.73;7.50;;;;;;;;;;5017499;28;20029;-80
2021/12/10 13:05:42;;;;;;;17.02;7.90;;;;;;;;;;5018652;28;20390;-81
2021/12/10 13:08:34;;;;;;;12.57;7.47;;;;;;;;;;5001423;28;20026;-81
2021/12/10 13:11:33;;;;;;;14.77;7.47;;;;;;;;;;5001071;28;20029;-81
2021/12/10 13:14:24;;;;;;;16.20;7.95;;;;;;;;;;5000961;28;20113;-79
2021/12/10 13:17:02;;;;;;;13.27;6.60;;;;;;;;;;4999430;28;20450;-83
2021/12/10 13:19:42;;;;;;;16.90;7.75;;;;;;;;;;5001504;28;20049;-81
2021/12/10 13:25:30;;;;;;;14.32;6.97;;;;;;;;;;5012703;28;20112;-80
2021/12/10 13:28:40;;;;;;;;;;;;;;;;;;;;;
2021/12/10 13:31:27;;;;;;;16.55;8.10;;;;;;;;;;5018952;28;20029;-81
2021/12/10 13:33:52;;;;;;;20.48;9.05;;;;;;;;;;5000874;28;20037;-81
2021/12/10 13:36:38;;;;;;;19.42;8.68;;;;;;;;;;5002942;28;20499;-80
2021/12/10 13:39:10;;;;;;;16.70;8.18;;;;;;;;;;5000338;28;20060;-80
2021/12/10 13:41:39;;;;;;;16.95;6.93;;;;;;;;;;5001465;28;20113;-80
2021/12/10 13:44:40;;;;;;;18.67;7.93;;;;;;;;;;5019630;28;20025;-80
2021/12/10 13:47:30;;;;;;;16.02;7.85;;;;;;;;;;5020050;28;20414;-81
2021/12/10 13:50:33;;;;;;;17.27;8.65;;;;;;;;;;5002784;28;20029;-80
2021/12/10 13:53:04;;;;;;;14.05;7.75;;;;;;;;;;5001359;28;20026;-81
2021/12/10 13:55:56;;;;;;;;;;;;;;;;;;;;;
2021/12/10 13:58:38;;;;;;;17.75;8.02;;;;;;;;;;5019190;28;20546;-81
2021/12/10 14:01:36;;;;;;;19.48;8.18;;;;;;;;;;5017847;28;20450;-80
2021/12/10 14:04:15;;;;;;;14.98;7.50;;;;;;;;;;5001285;28;20022;-81
2021/12/10 14:06:48;;;;;;;15.60;7.78;;;;;;;;;;5002082;28;20030;-81
2021/12/10 14:09:25;;;;;;;;;;;;;;;;;;5021677;28;20451;-80
2021/12/10 14:12:16;;;;;;;15.57;7.57;;;;;;;;;;5021191;28;19944;-82
2021/12/10 14:14:55;;;;;;;17.55;8.10;;;;;;;;;;5003406;28;20514;-80
2021/12/10 14:17:35;;;;;;;11.57;6.85;;;;;;;;;;5003058;28;20038;-81
2021/12/10 14:20:16;;;;;;;18.05;9.30;;;;;;;;;;5003401;28;20515;-80
2021/12/10 14:23:04;;;;;;;17.33;9.20;;;;;;;;;;5003664;28;20018;-81
2021/12/10 14:25:56;;;;;;;19.65;9.80;;;;;;;;;;5003783;28;20129;-80
2021/12/10 14:28:39;;;;;;;16.13;8.48;;;;;;;;;;5003796;28;20399;-81
2021/12/10 14:31:34;;;;;;;;;;;;;;;;;;;;;
2021/12/10 14:34:16;;;;;;;16.02;8.82;;;;;;;;;;5014936;28;20474;-80
2021/12/10 14:36:58;;;;;;;19.42;8.75;;;;;;;;;;5002399;28;20033;-79
2021/12/10 14:39:26;;;;;;;18.40;8.98;;;;;;;;;;5021210;28;20558;-80
2021/12/10 14:42:09;;;;;;;;;;;;;;;;;;;;;
2021/12/10 14:45:03;;;;;;;18.77;8.77;;;;;;;;;;5020317;28;20078;-82
2021/12/10 14:47:40;;;;;;;9.75;5.43;;;;;;;;;;5002107;28;20036;-80
2021/12/10 14:50:17;;;;;;;20.52;9.57;;;;;;;;;;5002286;28;20021;-80
2021/12/10 14:52:44;;;;;;;16.60;8.60;;;;;;;;;;5002111;28;20085;-79
2021/12/10 14:55:29;;;;;;;20.08;9.43;;;;;;;;;;5019886;28;20100;-81
2021/12/10 14:58:20;;;;;;;17.70;9.38;;;;;;;;;;4995041;28;20029;-81
2021/12/10 15:00:58;;;;;;;15.52;8.13;;;;;;;;;;5019835;28;20074;-81
2021/12/10 15:03:42;;;;;;;15.65;7.78;;;;;;;;;;5002612;28;20087;-81
2021/12/10 15:06:09;;;;;;;;;;;;;;;;;;5001884;28;20036;-81
2021/12/10 15:08:55;;;;;;;16.27;8.10;;;;;;;;;;5000976;28;19917;-80
2021/12/10 15:11:36;;;;;;;17.95;8.05;;;;;;;;;;5018995;28;20056;-80
2021/12/10 15:14:20;;;;;;;18.58;8.77;;;;;;;;;;5000972;28;20127;-79
2021/12/10 15:16:59;;;;;;;21.02;8.38;;;;;;;;;;5000976;28;20053;-80
2021/12/10 15:19:46;;;;;;;16.58;8.77;;;;;;;;;;5001679;28;20109;-80
2021/12/10 15:22:31;;;;;;;17.55;9.00;;;;;;;;;;5001706;28;20578;-80
2021/12/10 15:25:10;;;;;;;17.13;7.90;;;;;;;;;;5007714;28;20053;-82
2021/12/10 15:27:42;;;;;;;20.17;9.25;;;;;;;;;;5014651;28;20045;-79
2021/12/10 15:30:21;;;;;;;16.17;8.32;;;;;;;;;;5015380;28;20025;-79
2021/12/10 15:33:19;;;;;;;16.60;8.05;;;;;;;;;;5005063;28;20502;-81
2021/12/10 15:35:52;;;;;;;16.08;8.38;;;;;;;;;;4991377;28;20110;-81
2021/12/10 15:38:25;;;;;;;17.98;8.02;;;;;;;;;;5004734;28;20026;-80
2021/12/10 15:41:05;;;;;;;16.52;8.13;;;;;;;;;;5004811;28;20419;-81
2021/12/10 15:44:13;;;;;;;16.50;7.72;;;;;;;;;;5007087;28;20026;-79
2021/12/10 15:46:47;;;;;;;14.65;7.65;;;;;;;;;;4992990;28;20034;-80
2021/12/10 15:49:25;;;;;;;13.70;7.03;;;;;;;;;;5028356;28;20021;-81
2021/12/10 15:52:05;;;;;;;15.40;8.07;;;;;;;;;;5014241;28;20025;-80
2021/12/10 15:54:54;;;;;;;16.40;7.65;;;;;;;;;;5018666;28;20025;-80
2021/12/10 15:57:48;;;;;;;17.70;8.38;;;;;;;;;;5037423;28;20032;-80
2021/12/10 16:00:26;;;;;;;19.60;9.53;;;;;;;;;;5018321;28;20036;-79
2021/12/10 16:02:55;;;;;;;18.23;9.90;;;;;;;;;;5021659;28;20049;-79
2021/12/10 16:05:24;;;;;;;19.30;9.95;;;;;;;;;;5022162;28;20018;-79
2021/12/10 16:08:00;;;;;;;19.10;9.65;;;;;;;;;;5038377;28;20020;-79
2021/12/10 16:10:57;;;;;;;17.80;9.20;;;;;;;;;;5038655;28;20045;-79
2021/12/10 16:13:28;;;;;;;18.88;8.65;;;;;;;;;;5039179;28;20129;-79
2021/12/10 16:16:01;;;;;;;18.10;9.05;;;;;;;;;;5017078;28;20057;-80
2021/12/10 16:18:32;;;;;;;18.00;9.23;;;;;;;;;;5024719;28;20025;-79
2021/12/10 16:21:23;;;;;;;16.17;9.68;;;;;;;;;;5005829;28;20029;-80
2021/12/10 16:23:59;;;;;;;19.85;8.07;;;;;;;;;;5004832;28;20049;-80
2021/12/10 16:26:36;;;;;;;24.38;11.05;;;;;;;;;;5004767;28;20052;-80
2021/12/10 16:29:11;;;;;;;18.60;9.18;;;;;;;;;;5021031;28;20095;-79
2021/12/10 16:31:45;;;;;;;15.90;9.00;;;;;;;;;;5003215;28;20030;-79
2021/12/10 16:34:16;;;;;;;20.90;9.75;;;;;;;;;;5020805;28;20048;-81
2021/12/10 16:36:53;;;;;;;20.17;9.95;;;;;;;;;;5006095;28;20088;-81
2021/12/10 16:39:24;;;;;;;21.75;10.68;;;;;;;;;;5021968;28;20088;-81
2021/12/10 16:41:57;;;;;;;33.45;13.88;;;;;;;;;;5002462;28;20033;-81
2021/12/10 16:44:23;;;;;;;17.70;9.82;;;;;;;;;;5002717;28;20026;-82
2021/12/10 16:46:55;;;;;;;21.23;11.35;;;;;;;;;;5002466;28;20045;-81
2021/12/10 16:49:25;;;;;;;21.67;10.98;;;;;;;;;;5002324;28;20025;-81
2021/12/10 16:52:12;;;;;;;25.20;12.23;;;;;;;;;;5001553;28;20029;-81
2021/12/10 16:54:55;;;;;;;30.48;14.60;;;;;;;;;;5001722;28;20025;-82
2021/12/10 16:57:27;;;;;;;21.38;10.75;;;;;;;;;;5002319;28;20198;-81
2021/12/10 16:59:58;;;;;;;17.65;9.13;;;;;;;;;;5001804;28;20475;-81
2021/12/10 17:02:32;;;;;;;17.27;9.60;;;;;;;;;;5001263;28;20048;-81
2021/12/10 17:05:17;;;;;;;18.10;8.95;;;;;;;;;;5001907;28;20455;-80
2021/12/10 17:07:48;;;;;;;;;;;;;;;;;;5002831;28;20104;-81
2021/12/10 17:10:24;;;;;;;16.58;8.13;;;;;;;;;;5002224;28;19909;-82
2021/12/10 17:13:02;;;;;;;15.90;8.45;;;;;;;;;;5019206;28;20022;-81
2021/12/10 17:15:38;;;;;;;16.42;8.27;;;;;;;;;;5001459;28;20034;-81
2021/12/10 17:18:16;;;;;;;15.25;8.88;;;;;;;;;;5001791;28;20468;-81
2021/12/10 17:20:56;;;;;;;;;;;;;;;;;;;;;
2021/12/10 17:23:28;;;;;;;21.90;9.82;;;;;;;;;;5003241;28;20101;-80
2021/12/10 17:26:02;;;;;;;14.65;8.02;;;;;;;;;;5019292;28;20049;-80
2021/12/10 17:28:36;;;;;;;;;;;;;;;;;;5001836;28;20140;-81
2021/12/10 17:31:15;;;;;;;;;;;;;;;;;;5001374;28;20282;-81
2021/12/10 17:33:58;;;;;;;16.00;8.07;;;;;;;;;;5018979;28;20005;-82
2021/12/10 17:36:32;;;;;;;13.90;7.63;;;;;;;;;;5002734;28;20030;-81
2021/12/10 17:39:22;;;;;;;14.98;7.65;;;;;;;;;;5018825;28;20024;-82
2021/12/10 17:41:53;;;;;;;18.92;7.38;;;;;;;;;;5018772;28;20037;-81
2021/12/10 17:44:41;;;;;;;13.63;7.32;;;;;;;;;;5001930;28;20442;-80
2021/12/10 17:47:17;;;;;;;14.52;7.22;;;;;;;;;;5020675;28;20046;-82
2021/12/10 17:49:54;;;;;;;13.57;7.72;;;;;;;;;;5020350;28;20032;-80
2021/12/10 17:52:22;;;;;;;13.73;7.80;;;;;;;;;;5020607;28;20387;-81
2021/12/10 17:54:58;;;;;;;14.23;7.97;;;;;;;;;;5021400;28;20065;-83
2021/12/10 17:57:57;;;;;;;17.92;8.40;;;;;;;;;;5019788;28;20554;-82
2021/12/10 18:00:54;;;;;;;16.42;9.05;;;;;;;;;;5018748;28;20026;-81
2021/12/10 18:03:42;;;;;;;16.02;7.88;;;;;;;;;;5018440;28;20407;-81
2021/12/10 18:06:25;;;;;;;14.00;7.80;;;;;;;;;;5016463;28;20061;-82
2021/12/10 18:09:12;;;;;;;14.03;7.30;;;;;;;;;;5019620;28;20030;-83
2021/12/10 18:11:43;;;;;;;12.95;6.32;;;;;;;;;;5019301;28;20096;-81
2021/12/10 18:14:10;;;;;;;13.35;6.82;;;;;;;;;;5000275;28;20088;-82
2021/12/10 18:17:23;;;;;;;12.32;7.10;;;;;;;;;;4987615;28;20034;-84
2021/12/10 18:20:00;;;;;;;9.25;5.18;;;;;;;;;;5000976;28;20033;-82
2021/12/10 18:22:31;;;;;;;13.57;7.15;;;;;;;;;;5001618;28;20024;-82
2021/12/10 18:25:30;;;;;;;14.95;7.50;;;;;;;;;;5002249;28;20017;-80
2021/12/10 18:28:21;;;;;;;14.77;7.40;;;;;;;;;;5018866;28;20022;-82
2021/12/10 18:30:52;;;;;;;12.90;7.07;;;;;;;;;;5001161;28;20029;-81
2021/12/10 18:33:33;;;;;;;12.52;7.35;;;;;;;;;;4995728;28;20034;-82
2021/12/10 18:36:16;;;;;;;10.68;5.85;;;;;;;;;;5018535;28;20022;-82
2021/12/10 18:38:57;;;;;;;13.95;7.25;;;;;;;;;;4999838;28;20116;-81
2021/12/10 18:41:40;;;;;;;13.45;7.68;;;;;;;;;;4999722;28;20029;-81
2021/12/10 18:44:09;;;;;;;13.35;7.57;;;;;;;;;;5000751;28;20029;-82
2021/12/10 18:47:05;;;;;;;15.13;7.82;;;;;;;;;;4999867;28;20112;-83
2021/12/10 18:49:42;;;;;;;14.63;7.78;;;;;;;;;;5017134;28;20030;-81
2021/12/10 18:52:14;;;;;;;12.98;6.97;;;;;;;;;;5016789;28;20026;-83
2021/12/10 18:54:55;;;;;;;15.00;8.02;;;;;;;;;;4999351;28;20033;-83
2021/12/10 18:57:52;;;;;;;13.95;7.10;;;;;;;;;;4999827;28;20036;-82
2021/12/10 19:00:20;;;;;;;14.60;7.65;;;;;;;;;;4999455;28;20026;-82
2021/12/10 19:03:10;;;;;;;15.90;7.78;;;;;;;;;;5016938;28;20022;-82
2021/12/10 19:06:14;;;;;;;15.57;7.65;;;;;;;;;;4988007;28;20552;-82
2021/12/10 19:09:00;;;;;;;15.68;8.18;;;;;;;;;;4997058;28;20101;-84
2021/12/10 19:11:36;;;;;;;14.80;8.20;;;;;;;;;;5016945;28;20025;-82
2021/12/10 19:14:25;;;;;;;13.85;7.93;;;;;;;;;;4999786;28;20112;-82
2021/12/10 19:17:28;;;;;;;16.35;8.20;;;;;;;;;;4999655;28;20088;-80
2021/12/10 19:20:19;;;;;;;;;;;;;;;;;;;;;
2021/12/10 19:23:15;;;;;;;15.18;8.00;;;;;;;;;;5016845;28;20473;-83
2021/12/10 19:25:49;;;;;;;15.60;7.97;;;;;;;;;;4997795;28;20057;-83
2021/12/10 19:28:50;;;;;;;16.00;8.35;;;;;;;;;;4999495;28;20406;-81
2021/12/10 19:31:34;;;;;;;16.60;8.35;;;;;;;;;;4998740;28;20124;-81
2021/12/10 19:34:32;;;;;;;18.02;8.88;;;;;;;;;;4998964;28;20029;-81
2021/12/10 19:37:12;;;;;;;13.48;8.02;;;;;;;;;;4999159;28;20038;-82
2021/12/10 19:40:18;;;;;;;;;;;;;;;;;;;;;
2021/12/10 19:42:52;;;;;;;17.02;7.40;;;;;;;;;;5016899;28;20081;-82